• Join FlightAware (Why Join?)
  • Login
  • US Flag 
08:56AM EDT


 

Airport Tracker/Info


-or-


 

Live Flight TrackerFlight Track Log ✈ EEA2755 ✈ 21-Aug-2014 ✈ ZSLG / LYG - ZYTX / SHE

Flight Track Log - Related Links

Times and Time Zones

All times are in EDT time to prevent confusion due to time zone crossing. See the EEA2755 flight status page for this flight to view local times or setup timezone preferences in your user account.

Time Position Orientation Groundspeed Altitude Reporting Facility
EDT Latitude Longitude Course Direction KTS MPH feet Rate Location/Type
11:26PM 35.0238 119.1403 26° Northeast  Level Estimated
11:27PM 35.1031 119.1874 26° Northeast  Level Estimated
11:28PM 35.1824 119.2346 26° Northeast  Level Estimated
11:29PM 35.2617 119.2819 26° Northeast  Level Estimated
11:30PM 35.3409 119.3293 26° Northeast  Level Estimated
11:31PM 35.4202 119.3768 26° Northeast  Level Estimated
11:32PM 35.4994 119.4244 26° Northeast  Level Estimated
11:33PM 35.5786 119.4721 26° Northeast  Level Estimated
11:34PM 35.6577 119.5199 26° Northeast  Level Estimated
11:35PM 35.7369 119.5677 26° Northeast  Level Estimated
11:36PM 35.8161 119.6157 26° Northeast  Level Estimated
11:37PM 35.8952 119.6637 26° Northeast  Level Estimated
11:38PM 35.9743 119.7119 26° Northeast  Level Estimated
11:39PM 36.0534 119.7601 26° Northeast  Level Estimated
11:40PM 36.1324 119.8085 26° Northeast  Level Estimated
11:41PM 36.2115 119.8569 26° Northeast  Level Estimated
11:42PM 36.2905 119.9055 26° Northeast  Level Estimated
11:43PM 36.3695 119.9541 26° Northeast  Level Estimated
11:44PM 36.4485 120.0029 26° Northeast  Level Estimated
11:45PM 36.5275 120.0517 26° Northeast  Level Estimated
11:46PM 36.6064 120.1006 26° Northeast  Level Estimated
11:47PM 36.6853 120.1497 26° Northeast  Level Estimated
11:48PM 36.7643 120.1988 27° Northeast  Level Estimated
11:49PM 36.8431 120.2481 27° Northeast  Level Estimated
11:50PM 36.9220 120.2974 27° Northeast  Level Estimated
11:51PM 37.0009 120.3469 27° Northeast  Level Estimated
11:52PM 37.0797 120.3964 27° Northeast  Level Estimated
11:53PM 37.1585 120.4461 27° Northeast  Level Estimated
11:54PM 37.2373 120.4958 27° Northeast  Level Estimated
11:55PM 37.3160 120.5457 27° Northeast  Level Estimated
11:56PM 37.3948 120.5956 27° Northeast  Level Estimated
11:57PM 37.4735 120.6457 27° Northeast  Level Estimated
11:58PM 37.5522 120.6959 27° Northeast  Level Estimated
11:59PM 37.6309 120.7462 27° Northeast  Level Estimated
12:00AM 37.7095 120.7966 27° Northeast  Level Estimated
12:01AM 37.7882 120.8471 27° Northeast  Level Estimated
12:02AM 37.8668 120.8977 27° Northeast  Level Estimated
12:03AM 37.9454 120.9484 27° Northeast  Level Estimated
12:04AM 38.0240 120.9992 27° Northeast  Level Estimated
12:05AM 38.1025 121.0501 27° Northeast  Level Estimated
12:06AM 38.1810 121.1012 27° Northeast  Level Estimated
12:07AM 38.2595 121.1523 27° Northeast  Level Estimated
12:08AM 38.3380 121.2036 27° Northeast  Level Estimated
12:09AM 38.4165 121.2549 27° Northeast  Level Estimated
12:10AM 38.4949 121.3064 27° Northeast  Level Estimated
12:11AM 38.5733 121.3580 27° Northeast  Level Estimated
12:12AM 38.6517 121.4097 27° Northeast  Level Estimated
12:13AM 38.7301 121.4615 27° Northeast  Level Estimated
12:14AM 38.8084 121.5135 27° Northeast  Level Estimated
12:15AM 38.8868 121.5655 27° Northeast  Level Estimated
12:16AM 38.9651 121.6177 27° Northeast  Level Estimated
12:17AM 39.0434 121.6700 27° Northeast  Level Estimated
12:18AM 39.1216 121.7224 27° Northeast  Level Estimated
12:19AM 39.1998 121.7749 27° Northeast  Level Estimated
12:20AM 39.2780 121.8275 28° Northeast  Level Estimated
12:21AM 39.3562 121.8802 28° Northeast  Level Estimated
12:22AM 39.4344 121.9331 28° Northeast  Level Estimated
12:23AM 39.5125 121.9861 28° Northeast  Level Estimated
12:24AM 39.5906 122.0392 28° Northeast  Level Estimated
12:25AM 39.6687 122.0924 28° Northeast  Level Estimated
12:26AM 39.7468 122.1457 28° Northeast  Level Estimated
12:27AM 39.8248 122.1992 28° Northeast  Level Estimated
12:28AM 39.9028 122.2528 28° Northeast  Level Estimated
12:29AM 39.9808 122.3065 28° Northeast  Level Estimated
12:30AM 40.0588 122.3603 28° Northeast  Level Estimated
12:31AM 40.1367 122.4143 28° Northeast  Level Estimated
12:32AM 40.2146 122.4684 28° Northeast  Level Estimated
12:33AM 40.2925 122.5226 28° Northeast  Level Estimated
12:34AM 40.3704 122.5769 28° Northeast  Level Estimated
12:35AM 40.4482 122.6313 28° Northeast  Level Estimated
12:36AM 40.5260 122.6859 28° Northeast  Level Estimated
12:37AM 40.6038 122.7406 28° Northeast  Level Estimated
12:38AM 40.6816 122.7954 28° Northeast  Level Estimated
12:39AM 40.7593 122.8504 28° Northeast  Level Estimated
12:40AM 40.8370 122.9055 28° Northeast  Level Estimated
12:41AM 40.9147 122.9607 28° Northeast  Level Estimated
12:42AM 40.9924 123.0161 28° Northeast  Level Estimated
12:43AM 41.0700 123.0715 28° Northeast  Level Estimated
12:44AM 41.1476 123.1271 28° Northeast  Level Estimated
12:45AM 41.2252 123.1829 28° Northeast  Level Estimated
12:46AM 41.3027 123.2388 28° Northeast  Level Estimated
12:47AM 41.3802 123.2948 28° Northeast  Level Estimated
12:48AM 41.4577 123.3509 28° Northeast  Level Estimated
12:49AM 41.5352 123.4072 29° Northeast  Level Estimated
12:50AM 41.6127 123.4636 29° Northeast  Level Estimated
12:51AM 41.6398 123.4834 29° Northeast  Level Estimated
12:52AM 41.6398 123.4834 North  Level Estimated
12:53AM 41.6398 123.4834 North  Level Estimated
12:54AM 41.6398 123.4834 North  Level Estimated
12:55AM 41.6398 123.4834 North  Level Estimated
12:56AM 41.6398 123.4834 North  Level Estimated
12:57AM 41.6398 123.4834 North  Level Estimated
12:58AM 41.6398 123.4834 North  Level Estimated
12:59AM 41.6398 123.4834 North  Level Estimated